Terminal Aerodrome Forecast
Issued by NWS

Home | Current Version | Previous Version | Text Only | Print | Product List | Glossary On
Versions: 1 2 3 4 5 6 7 8 9 10 11 12 13 14 15 16 17 18 19 20 21 22 23 24 25 26 27 28
932
FTUS42 KCAE 271731
TAFOGB
TAF
KOGB 271731Z 2718/2818 22010KT P6SM VCSH BKN035
     FM280100 19005KT P6SM VCSH BKN035 WS010/21025KT
     FM281400 24012G18KT P6SM VCSH BKN035=

USA.gov is the U.S. government's official web portal to all federal, state and local government web resources and services.